createdAt,value
2022-11-10T00:01:06.820Z,98620.00
2022-11-10T00:03:35.240Z,98615.13
2022-11-10T00:06:04.307Z,98614.06
2022-11-10T00:08:31.222Z,98620.16
2022-11-10T00:10:57.869Z,98630.72
2022-11-10T00:13:35.128Z,98627.00
2022-11-10T00:16:25.081Z,98631.56
2022-11-10T00:18:51.501Z,98641.25
2022-11-10T00:21:18.395Z,98649.88
2022-11-10T00:23:47.705Z,98652.63
2022-11-10T00:26:19.797Z,98665.06
2022-11-10T00:28:46.764Z,98667.00
2022-11-10T00:31:13.827Z,98668.06
2022-11-10T00:33:43.907Z,98670.19
2022-11-10T00:36:11.241Z,98675.97
2022-11-10T00:38:38.066Z,98676.28
2022-11-10T00:41:04.948Z,98682.41
2022-11-10T00:43:32.000Z,98676.28
2022-11-10T00:45:58.797Z,98682.84
2022-11-10T00:48:25.664Z,98687.66
2022-11-10T00:50:52.185Z,98688.19
2022-11-10T00:53:19.267Z,98682.81
2022-11-10T00:55:46.205Z,98685.25
2022-11-10T00:58:12.791Z,98687.25
2022-11-10T01:00:39.256Z,98695.91
2022-11-10T01:03:06.204Z,98695.06
2022-11-10T01:05:37.525Z,98701.19
2022-11-10T01:08:05.173Z,98696.31
2022-11-10T01:10:31.763Z,98699.91
2022-11-10T01:12:59.100Z,98706.00
2022-11-10T01:15:27.818Z,98703.19
2022-11-10T01:17:56.684Z,98706.97
2022-11-10T01:20:24.723Z,98713.94
2022-11-10T01:22:51.382Z,98722.03
2022-11-10T01:25:17.921Z,98722.00
2022-11-10T01:27:44.432Z,98730.63
2022-11-10T01:30:11.565Z,98735.56
2022-11-10T01:32:38.032Z,98731.88
2022-11-10T01:35:05.255Z,98731.28
2022-11-10T01:37:31.732Z,98731.00
2022-11-10T01:39:58.258Z,98741.25
2022-11-10T01:42:27.961Z,98737.84
2022-11-10T01:45:25.092Z,98725.09
2022-11-10T01:48:05.357Z,98723.38
2022-11-10T01:50:38.807Z,98725.44
2022-11-10T01:53:14.389Z,98720.69
2022-11-10T01:55:45.325Z,98723.31
2022-11-10T01:58:16.201Z,98728.97
2022-11-10T02:00:44.472Z,98725.44
2022-11-10T02:03:25.707Z,98731.28
2022-11-10T02:05:52.513Z,98736.56
2022-11-10T02:08:19.510Z,98740.78
2022-11-10T02:10:46.013Z,98743.78
2022-11-10T02:13:12.583Z,98734.88
2022-11-10T02:15:39.638Z,98737.97
2022-11-10T02:18:06.159Z,98735.97
2022-11-10T02:20:32.827Z,98739.97
2022-11-10T02:22:59.306Z,98747.22
2022-11-10T02:25:32.837Z,98742.81
2022-11-10T02:27:59.262Z,98735.78
2022-11-10T02:30:27.847Z,98744.59
2022-11-10T02:32:54.398Z,98748.19
2022-11-10T02:35:20.894Z,98760.22
2022-11-10T02:37:47.358Z,98761.81
2022-11-10T02:40:14.117Z,98763.59
2022-11-10T02:42:40.601Z,98770.53
2022-11-10T02:45:08.658Z,98776.44
2022-11-10T02:47:35.285Z,98779.81
2022-11-10T02:50:01.704Z,98779.19
2022-11-10T02:52:28.175Z,98787.19
2022-11-10T02:54:54.607Z,98780.22
2022-11-10T02:57:21.105Z,98776.94
2022-11-10T02:59:47.818Z,98785.72
2022-11-10T03:02:15.262Z,98779.19
2022-11-10T03:04:42.030Z,98781.94
2022-11-10T03:07:08.533Z,98780.22
2022-11-10T03:09:35.068Z,98780.34
2022-11-10T03:12:01.643Z,98788.44
2022-11-10T03:14:28.069Z,98793.41
2022-11-10T03:16:54.508Z,98793.50
2022-11-10T03:19:20.949Z,98790.56
2022-11-10T03:21:47.939Z,98795.44
2022-11-10T03:24:14.374Z,98801.63
2022-11-10T03:26:40.878Z,98806.63
2022-11-10T03:29:07.326Z,98805.78
2022-11-10T03:31:33.764Z,98811.06
2022-11-10T03:34:00.231Z,98811.56
2022-11-10T03:36:26.713Z,98827.66
2022-11-10T03:38:53.136Z,98831.06
2022-11-10T03:41:20.724Z,98830.59
2022-11-10T03:43:48.971Z,98841.78
2022-11-10T03:46:16.713Z,98845.19
2022-11-10T03:48:44.563Z,98841.50
2022-11-10T03:51:13.940Z,98836.63
2022-11-10T03:53:40.435Z,98833.69
2022-11-10T03:56:07.333Z,98809.53
2022-11-10T03:58:33.770Z,98818.59
2022-11-10T04:01:00.319Z,98827.66
2022-11-10T04:03:26.811Z,98823.69
2022-11-10T04:06:11.830Z,98829.06
2022-11-10T04:08:57.177Z,98825.34
2022-11-10T04:11:42.516Z,98836.13
2022-11-10T04:14:27.697Z,98830.03
2022-11-10T04:16:54.490Z,98838.78
2022-11-10T04:19:21.326Z,98850.03
2022-11-10T04:21:47.798Z,98860.38
2022-11-10T04:24:14.761Z,98868.00
2022-11-10T04:26:42.963Z,98872.63
2022-11-10T04:29:11.970Z,98872.28
2022-11-10T04:31:40.817Z,98876.91
2022-11-10T04:34:12.870Z,98880.50
2022-11-10T04:36:42.931Z,98887.56
2022-11-10T04:39:10.618Z,98896.41
2022-11-10T04:41:37.612Z,98903.56
2022-11-10T04:44:04.956Z,98903.38
2022-11-10T04:46:39.653Z,98907.59
2022-11-10T04:49:08.113Z,98901.47
2022-11-10T04:51:38.827Z,98910.69
2022-11-10T04:54:07.450Z,98920.31
2022-11-10T04:56:34.747Z,98921.25
2022-11-10T04:59:01.385Z,98917.84
2022-11-10T05:01:28.287Z,98925.47
2022-11-10T05:03:55.822Z,98926.97
2022-11-10T05:06:23.536Z,98936.69
2022-11-10T05:08:51.207Z,98929.81
2022-11-10T05:11:18.189Z,98944.09
2022-11-10T05:13:45.819Z,98941.41
2022-11-10T05:16:13.077Z,98952.47
2022-11-10T05:18:40.860Z,98948.94
2022-11-10T05:21:07.463Z,98951.38
2022-11-10T05:23:40.277Z,98950.59
2022-11-10T05:26:12.143Z,98949.66
2022-11-10T05:28:41.582Z,98963.22
2022-11-10T05:31:09.111Z,98961.16
2022-11-10T05:33:37.737Z,98980.16
2022-11-10T05:36:06.656Z,98973.22
2022-11-10T05:38:33.305Z,98978.25
2022-11-10T05:41:00.230Z,98983.09
2022-11-10T05:43:26.827Z,98982.03
2022-11-10T05:45:53.374Z,98991.28
2022-11-10T05:48:20.222Z,98986.38
2022-11-10T05:50:46.744Z,98985.53
2022-11-10T05:53:13.363Z,98993.16
2022-11-10T05:55:39.898Z,98992.00
2022-11-10T05:58:06.556Z,98999.84
2022-11-10T06:00:33.736Z,99003.50
2022-11-10T06:03:06.120Z,99008.03
2022-11-10T06:05:35.990Z,99023.19
2022-11-10T06:08:05.246Z,99026.38
2022-11-10T06:10:33.725Z,99027.31
2022-11-10T06:13:00.707Z,99031.16
2022-11-10T06:15:28.084Z,99037.66
2022-11-10T06:17:55.590Z,99038.41
2022-11-10T06:20:23.810Z,99039.28
2022-11-10T06:23:09.888Z,99048.03
2022-11-10T06:25:39.077Z,99051.50
2022-11-10T06:28:07.157Z,99056.59
2022-11-10T06:30:35.918Z,99069.38
2022-11-10T06:33:03.256Z,99066.91
2022-11-10T06:35:30.498Z,99075.69
2022-11-10T06:38:06.354Z,99084.63
2022-11-10T06:40:33.863Z,99082.09
2022-11-10T06:43:01.582Z,99091.03
2022-11-10T06:45:29.099Z,99099.00
2022-11-10T06:48:14.023Z,99095.13
2022-11-10T06:50:40.642Z,99105.31
2022-11-10T06:53:07.324Z,99118.22
2022-11-10T06:55:33.773Z,99125.00
2022-11-10T06:58:00.858Z,99120.75
2022-11-10T07:00:29.641Z,99130.16
2022-11-10T07:03:05.544Z,99132.63
2022-11-10T07:05:35.412Z,99136.94
2022-11-10T07:08:08.297Z,99146.19
2022-11-10T07:10:35.948Z,99141.97
2022-11-10T07:13:04.645Z,99144.78
2022-11-10T07:15:31.482Z,99143.34
2022-11-10T07:17:57.943Z,99150.88
2022-11-10T07:20:25.966Z,99154.28
2022-11-10T07:23:01.659Z,99165.28
2022-11-10T07:25:30.876Z,99161.88
2022-11-10T07:28:03.512Z,99170.63
2022-11-10T07:30:32.669Z,99166.13
2022-11-10T07:33:06.634Z,99171.97
2022-11-10T07:35:34.445Z,99172.41
2022-11-10T07:38:10.610Z,99172.50
2022-11-10T07:40:38.437Z,99172.53
2022-11-10T07:43:05.277Z,99174.19
2022-11-10T07:45:33.153Z,99173.06
2022-11-10T07:48:07.115Z,99176.81
2022-11-10T07:50:34.376Z,99172.63
2022-11-10T07:53:14.959Z,99191.66
2022-11-10T07:55:44.168Z,99185.31
2022-11-10T07:58:13.872Z,99187.50
2022-11-10T08:00:41.343Z,99194.72
2022-11-10T08:03:16.140Z,99186.22
2022-11-10T08:05:43.064Z,99200.53
2022-11-10T08:08:10.685Z,99199.09
2022-11-10T08:10:37.878Z,99200.41
2022-11-10T08:13:08.053Z,99205.16
2022-11-10T08:15:36.309Z,99215.63
2022-11-10T08:18:17.927Z,99212.66
2022-11-10T08:20:45.462Z,99223.19
2022-11-10T08:23:13.082Z,99223.34
2022-11-10T08:25:40.061Z,99221.50
2022-11-10T08:28:10.592Z,99224.81
2022-11-10T08:30:41.588Z,99233.00
2022-11-10T08:33:10.629Z,99238.13
2022-11-10T08:35:42.479Z,99240.16
2022-11-10T08:38:14.771Z,99244.72
2022-11-10T08:40:42.690Z,99240.03
2022-11-10T08:43:10.204Z,99249.00
2022-11-10T08:45:40.309Z,99260.94
2022-11-10T08:48:20.523Z,99248.44
2022-11-10T08:50:49.498Z,99259.66
2022-11-10T08:53:20.984Z,99267.41
2022-11-10T08:55:48.395Z,99272.66
2022-11-10T08:58:18.127Z,99268.00
2022-11-10T09:00:44.878Z,99285.78
2022-11-10T09:03:14.995Z,99294.00
2022-11-10T09:05:43.414Z,99299.09
2022-11-10T09:08:10.254Z,99299.28
2022-11-10T09:10:40.549Z,99297.94
2022-11-10T09:13:08.735Z,99300.13
2022-11-10T09:15:35.858Z,99299.75
2022-11-10T09:18:06.076Z,99307.91
2022-11-10T09:20:35.843Z,99309.78
2022-11-10T09:23:15.154Z,99314.84
2022-11-10T09:25:43.476Z,99309.19
2022-11-10T09:28:14.695Z,99310.53
2022-11-10T09:30:41.844Z,99319.38
2022-11-10T09:33:08.659Z,99310.94
2022-11-10T09:35:35.181Z,99336.44
2022-11-10T09:38:01.650Z,99332.78
2022-11-10T09:41:08.153Z,99330.13
2022-11-10T09:44:02.022Z,99337.84
2022-11-10T09:46:38.213Z,99345.69
2022-11-10T09:49:32.477Z,99348.00
2022-11-10T09:52:02.358Z,99346.16
2022-11-10T09:54:42.995Z,99349.34
2022-11-10T09:57:18.837Z,99348.06
2022-11-10T09:59:45.504Z,99344.13
2022-11-10T10:02:36.152Z,99342.22
2022-11-10T10:05:46.510Z,99344.47
2022-11-10T10:08:31.794Z,99357.00
2022-11-10T10:11:08.901Z,99363.13
2022-11-10T10:14:13.566Z,99347.88
2022-11-10T10:17:08.477Z,99344.38
2022-11-10T10:19:53.695Z,99350.03
2022-11-10T10:22:50.631Z,99362.53
2022-11-10T10:25:23.457Z,99365.53
2022-11-10T10:28:07.926Z,99365.13
2022-11-10T10:30:34.363Z,99363.28
2022-11-10T10:33:14.560Z,99363.28
2022-11-10T10:35:43.222Z,99353.69
2022-11-10T10:38:26.640Z,99360.47
2022-11-10T10:41:05.582Z,99372.25
2022-11-10T10:43:33.138Z,99376.91
2022-11-10T10:46:12.630Z,99367.69
2022-11-10T10:48:39.077Z,99367.13
2022-11-10T10:51:05.683Z,99360.91
2022-11-10T10:53:32.225Z,99366.38
2022-11-10T10:56:02.002Z,99357.94
2022-11-10T10:58:33.397Z,99358.28
2022-11-10T11:01:20.884Z,99352.22
2022-11-10T11:03:50.978Z,99355.41
2022-11-10T11:06:17.303Z,99356.38
2022-11-10T11:09:06.017Z,99352.22
2022-11-10T11:11:39.886Z,99363.50
2022-11-10T11:14:22.921Z,99368.78
2022-11-10T11:17:04.203Z,99363.91
2022-11-10T11:19:37.248Z,99362.09
2022-11-10T11:22:38.328Z,99364.03
2022-11-10T11:25:34.916Z,99367.78
2022-11-10T11:28:38.006Z,99367.81
2022-11-10T11:31:38.840Z,99372.31
2022-11-10T11:34:26.597Z,99384.16
2022-11-10T11:37:24.889Z,99381.00
2022-11-10T11:40:18.226Z,99379.63
2022-11-10T11:42:54.487Z,99382.94
2022-11-10T11:46:06.543Z,99370.31
2022-11-10T11:49:06.811Z,99380.63
2022-11-10T11:51:50.445Z,99388.22
2022-11-10T11:54:33.440Z,99383.41
2022-11-10T11:57:20.720Z,99382.78
2022-11-10T12:00:03.059Z,99393.63
2022-11-10T12:02:53.422Z,99399.00
2022-11-10T12:06:02.806Z,99398.19
2022-11-10T12:08:43.361Z,99404.78
2022-11-10T12:11:35.218Z,99412.16
2022-11-10T12:14:29.629Z,99416.03
2022-11-10T12:17:16.750Z,99420.72
2022-11-10T12:20:17.058Z,99421.91
2022-11-10T12:23:19.004Z,99429.38
2022-11-10T12:26:09.646Z,99421.56
2022-11-10T12:28:50.251Z,99423.28
2022-11-10T12:31:23.349Z,99434.13
2022-11-10T12:34:05.115Z,99430.06
2022-11-10T12:36:33.283Z,99438.47
2022-11-10T12:39:24.933Z,99437.50
2022-11-10T12:41:59.889Z,99440.16
2022-11-10T12:44:29.080Z,99438.56
2022-11-10T12:47:02.615Z,99436.09
2022-11-10T12:49:35.455Z,99441.38
2022-11-10T12:52:24.997Z,99441.13
2022-11-10T12:54:51.499Z,99445.72
2022-11-10T12:57:25.317Z,99435.44
2022-11-10T13:00:04.009Z,99437.81
2022-11-10T13:02:33.063Z,99440.56
2022-11-10T13:05:14.653Z,99427.38
2022-11-10T13:08:07.031Z,99423.94
2022-11-10T13:10:33.974Z,99427.72
2022-11-10T13:13:06.244Z,99426.84
2022-11-10T13:15:35.627Z,99438.47
2022-11-10T13:18:02.335Z,99441.56
2022-11-10T13:20:50.380Z,99456.69
2022-11-10T13:23:26.585Z,99455.91
2022-11-10T13:26:09.942Z,99450.53
2022-11-10T13:28:48.375Z,99457.16
2022-11-10T13:31:26.941Z,99459.56
2022-11-10T13:34:02.669Z,99462.63
2022-11-10T13:36:45.315Z,99462.44
2022-11-10T13:39:33.416Z,99471.97
2022-11-10T13:42:08.791Z,99476.78
2022-11-10T13:44:42.130Z,99472.63
2022-11-10T13:47:08.494Z,99472.72
2022-11-10T13:50:00.243Z,99477.63
2022-11-10T13:52:59.858Z,99471.75
2022-11-10T13:56:04.693Z,99473.91
2022-11-10T13:58:33.977Z,99477.09
2022-11-10T14:01:30.319Z,99482.28
2022-11-10T14:04:01.924Z,99489.75
2022-11-10T14:06:43.771Z,99488.59
2022-11-10T14:09:34.985Z,99494.91
2022-11-10T14:12:21.277Z,99488.31
2022-11-10T14:15:29.877Z,99476.69
2022-11-10T14:17:56.844Z,99476.31
2022-11-10T14:20:29.709Z,99476.31
2022-11-10T14:22:57.352Z,99480.22
2022-11-10T14:25:30.624Z,99484.00
2022-11-10T14:27:58.503Z,99484.16
2022-11-10T14:30:33.275Z,99487.34
2022-11-10T14:33:12.743Z,99487.53
2022-11-10T14:35:54.110Z,99490.16
2022-11-10T14:38:25.241Z,99495.50
2022-11-10T14:40:59.661Z,99488.97
2022-11-10T14:43:38.950Z,99496.13
2022-11-10T14:46:07.394Z,99481.13
2022-11-10T14:48:37.338Z,99486.50
2022-11-10T14:51:14.061Z,99490.56
2022-11-10T14:53:48.598Z,99487.97
2022-11-10T14:56:25.984Z,99495.19
2022-11-10T14:58:54.724Z,99490.53
2022-11-10T15:01:38.988Z,99499.38
2022-11-10T15:04:10.588Z,99505.50
2022-11-10T15:06:41.903Z,99502.03
2022-11-10T15:09:29.853Z,99500.25
2022-11-10T15:12:24.720Z,99498.06
2022-11-10T15:15:00.286Z,99491.31
2022-11-10T15:17:51.325Z,99490.91
2022-11-10T15:20:27.849Z,99492.59
2022-11-10T15:22:58.192Z,99499.34
2022-11-10T15:25:40.636Z,99492.97
2022-11-10T15:28:18.669Z,99489.94
2022-11-10T15:30:51.395Z,99495.81
2022-11-10T15:33:27.754Z,99496.03
2022-11-10T15:36:12.537Z,99493.72
2022-11-10T15:38:39.055Z,99496.94
2022-11-10T15:41:16.157Z,99505.25
2022-11-10T15:43:42.828Z,99512.06
2022-11-10T15:46:24.321Z,99515.94
2022-11-10T15:48:52.891Z,99514.09
2022-11-10T15:51:25.956Z,99514.75
2022-11-10T15:53:54.172Z,99507.00
2022-11-10T15:56:24.727Z,99505.94
2022-11-10T15:58:57.666Z,99518.47
2022-11-10T16:01:27.271Z,99513.22
2022-11-10T16:03:53.758Z,99521.03
2022-11-10T16:06:20.178Z,99531.69
2022-11-10T16:08:46.622Z,99537.81
2022-11-10T16:11:21.773Z,99541.91
2022-11-10T16:13:50.778Z,99550.59
2022-11-10T16:16:19.181Z,99549.97
2022-11-10T16:18:46.382Z,99547.88
2022-11-10T16:21:16.407Z,99549.28
2022-11-10T16:23:43.759Z,99546.38
2022-11-10T16:26:23.564Z,99547.00
2022-11-10T16:28:50.471Z,99546.16
2022-11-10T16:31:21.823Z,99553.78
2022-11-10T16:33:49.557Z,99560.75
2022-11-10T16:36:26.289Z,99565.44
2022-11-10T16:38:54.793Z,99576.75
2022-11-10T16:41:22.001Z,99574.44
2022-11-10T16:43:48.469Z,99579.41
2022-11-10T16:46:29.509Z,99581.94
2022-11-10T16:49:00.652Z,99582.06
2022-11-10T16:51:33.505Z,99580.72
2022-11-10T16:53:59.924Z,99579.25
2022-11-10T16:56:27.272Z,99573.91
2022-11-10T16:58:54.308Z,99577.88
2022-11-10T17:01:27.213Z,99590.78
2022-11-10T17:03:58.545Z,99600.63
2022-11-10T17:06:28.615Z,99606.88
2022-11-10T17:09:01.241Z,99610.56
2022-11-10T17:11:27.712Z,99606.06
2022-11-10T17:13:54.176Z,99616.22
2022-11-10T17:16:34.488Z,99625.97
2022-11-10T17:19:03.674Z,99622.50
2022-11-10T17:21:35.551Z,99631.94
2022-11-10T17:24:03.179Z,99641.59
2022-11-10T17:26:30.679Z,99647.97
2022-11-10T17:28:57.444Z,99652.25
2022-11-10T17:31:23.901Z,99641.84
2022-11-10T17:33:50.340Z,99640.38
2022-11-10T17:36:23.029Z,99640.09
2022-11-10T17:38:51.868Z,99649.63
2022-11-10T17:41:20.221Z,99658.16
2022-11-10T17:43:47.649Z,99662.78
2022-11-10T17:46:15.244Z,99663.44
2022-11-10T17:48:42.231Z,99663.31
2022-11-10T17:51:19.481Z,99666.34
2022-11-10T17:53:46.270Z,99660.94
2022-11-10T17:56:13.094Z,99659.50
2022-11-10T17:58:39.615Z,99651.00
2022-11-10T18:01:32.579Z,99645.03
2022-11-10T18:03:59.733Z,99648.50
2022-11-10T18:06:26.297Z,99659.09
2022-11-10T18:08:52.757Z,99653.88
2022-11-10T18:11:19.314Z,99663.47
2022-11-10T18:13:46.059Z,99658.28
2022-11-10T18:16:14.141Z,99676.19
2022-11-10T18:18:41.413Z,99664.13
2022-11-10T18:21:09.414Z,99673.09
2022-11-10T18:23:35.924Z,99675.47
2022-11-10T18:26:08.818Z,99677.34
2022-11-10T18:28:35.905Z,99689.91
2022-11-10T18:31:11.344Z,99699.66
2022-11-10T18:33:37.853Z,99696.63
2022-11-10T18:36:05.385Z,99703.00
2022-11-10T18:38:32.298Z,99707.53
2022-11-10T18:41:22.657Z,99714.63
2022-11-10T18:43:49.086Z,99712.69
2022-11-10T18:46:15.534Z,99720.16
2022-11-10T18:48:42.428Z,99742.66
2022-11-10T18:51:08.877Z,99730.81
2022-11-10T18:53:38.211Z,99723.63
2022-11-10T18:56:05.409Z,99731.41
2022-11-10T18:58:31.890Z,99728.66
2022-11-10T19:01:12.062Z,99725.22
2022-11-10T19:03:38.644Z,99713.59
2022-11-10T19:06:05.666Z,99720.38
2022-11-10T19:08:32.171Z,99717.19
2022-11-10T19:10:58.936Z,99713.81
2022-11-10T19:13:26.059Z,99718.38
2022-11-10T19:15:53.239Z,99717.00
2022-11-10T19:18:19.665Z,99715.41
2022-11-10T19:20:46.178Z,99702.72
2022-11-10T19:23:12.617Z,99704.31
2022-11-10T19:25:39.109Z,99693.72
2022-11-10T19:28:05.852Z,99694.59
2022-11-10T19:30:32.364Z,99689.34
2022-11-10T19:32:58.814Z,99692.28
2022-11-10T19:35:25.374Z,99697.47
2022-11-10T19:37:53.986Z,99701.13
2022-11-10T19:40:21.763Z,99708.16
2022-11-10T19:42:48.723Z,99705.28
2022-11-10T19:45:15.946Z,99707.69
2022-11-10T19:47:43.010Z,99720.59
2022-11-10T19:50:09.734Z,99724.41
2022-11-10T19:52:36.227Z,99735.59
2022-11-10T19:55:02.753Z,99738.00
2022-11-10T19:57:29.209Z,99735.03
2022-11-10T19:59:55.944Z,99732.41
2022-11-10T20:02:22.487Z,99735.47
2022-11-10T20:05:07.736Z,99754.81
2022-11-10T20:07:53.043Z,99748.69
2022-11-10T20:10:19.547Z,99751.03
2022-11-10T20:12:46.058Z,99750.84
2022-11-10T20:15:12.522Z,99750.75
2022-11-10T20:17:39.043Z,99757.84
2022-11-10T20:20:07.099Z,99752.88
2022-11-10T20:22:33.701Z,99753.22
2022-11-10T20:25:00.334Z,99761.22
2022-11-10T20:27:26.894Z,99757.81
2022-11-10T20:29:53.395Z,99763.22
2022-11-10T20:32:19.878Z,99760.41
2022-11-10T20:34:46.787Z,99756.84
2022-11-10T20:37:13.232Z,99765.81
2022-11-10T20:39:39.791Z,99766.97
2022-11-10T20:42:06.238Z,99763.66
2022-11-10T20:44:32.726Z,99756.66
2022-11-10T20:46:59.305Z,99753.94
2022-11-10T20:49:25.877Z,99746.16
2022-11-10T20:51:52.325Z,99739.41
2022-11-10T20:54:18.909Z,99746.69
2022-11-10T20:56:45.343Z,99742.78
2022-11-10T20:59:11.938Z,99745.03
2022-11-10T21:01:38.522Z,99741.75
2022-11-10T21:04:06.143Z,99742.56
2022-11-10T21:06:32.916Z,99741.09
2022-11-10T21:08:59.487Z,99738.66
2022-11-10T21:11:44.464Z,99741.22
2022-11-10T21:14:10.930Z,99749.19
2022-11-10T21:16:37.447Z,99747.38
2022-11-10T21:19:04.090Z,99747.94
2022-11-10T21:21:36.393Z,99749.69
2022-11-10T21:24:05.637Z,99741.84
2022-11-10T21:26:34.376Z,99749.44
2022-11-10T21:29:02.481Z,99744.88
2022-11-10T21:31:30.478Z,99740.34
2022-11-10T21:33:58.470Z,99739.94
2022-11-10T21:36:29.016Z,99738.34
2022-11-10T21:38:57.585Z,99746.34
2022-11-10T21:41:25.263Z,99750.84
2022-11-10T21:43:51.869Z,99761.97
2022-11-10T21:46:18.953Z,99769.25
2022-11-10T21:48:45.678Z,99770.09
2022-11-10T21:51:14.091Z,99768.16
2022-11-10T21:53:41.831Z,99771.00
2022-11-10T21:56:10.630Z,99771.44
2022-11-10T21:58:37.520Z,99778.38
2022-11-10T22:01:15.276Z,99775.22
2022-11-10T22:03:42.001Z,99773.59
2022-11-10T22:06:13.375Z,99777.03
2022-11-10T22:08:43.020Z,99777.69
2022-11-10T22:11:38.369Z,99790.97
2022-11-10T22:14:31.398Z,99789.56
2022-11-10T22:17:18.152Z,99798.53
2022-11-10T22:19:45.094Z,99800.84
2022-11-10T22:22:14.047Z,99798.03
2022-11-10T22:24:40.502Z,99801.44
2022-11-10T22:27:08.080Z,99800.44
2022-11-10T22:29:34.591Z,99794.16
2022-11-10T22:32:02.208Z,99786.94
2022-11-10T22:34:29.094Z,99777.53
2022-11-10T22:36:55.757Z,99783.78
2022-11-10T22:39:22.507Z,99791.59
2022-11-10T22:42:07.977Z,99797.09
2022-11-10T22:44:36.255Z,99795.41
2022-11-10T22:47:02.695Z,99795.66
2022-11-10T22:49:29.181Z,99793.56
2022-11-10T22:51:55.762Z,99792.44
2022-11-10T22:54:23.596Z,99793.81
2022-11-10T22:56:51.340Z,99799.09
2022-11-10T22:59:18.976Z,99799.44
2022-11-10T23:01:45.848Z,99801.91
2022-11-10T23:04:12.616Z,99801.78
2022-11-10T23:06:39.368Z,99802.78
2022-11-10T23:09:06.618Z,99809.22
2022-11-10T23:11:33.660Z,99798.00
2022-11-10T23:14:00.438Z,99794.34
2022-11-10T23:16:31.710Z,99796.75
2022-11-10T23:18:58.972Z,99806.28
2022-11-10T23:21:30.048Z,99809.56
2022-11-10T23:23:56.902Z,99812.91
2022-11-10T23:26:27.374Z,99819.03
2022-11-10T23:28:54.302Z,99818.97
2022-11-10T23:31:24.244Z,99821.63
2022-11-10T23:33:54.806Z,99830.06
2022-11-10T23:36:23.912Z,99831.88
2022-11-10T23:38:50.948Z,99827.38
2022-11-10T23:41:23.242Z,99829.84
2022-11-10T23:43:49.694Z,99827.25
2022-11-10T23:46:16.141Z,99818.63
2022-11-10T23:48:43.023Z,99819.34
2022-11-10T23:51:14.137Z,99828.91
2022-11-10T23:53:41.013Z,99836.06
2022-11-10T23:56:12.917Z,99849.56
2022-11-10T23:58:39.728Z,99855.19
